Time;durP1;ratioP1;P1;durP2;ratioP2;P2;SDS_P1;SDS_P2;PMS_P1;PMS_P2;Temp;Humidity;BMP_temperature;BMP_pressure;BME280_temperature;BME280_humidity;BME280_pressure;Samples;Min_cycle;Max_cycle;Signal;HPM_P1;HPM_P2
2021/12/19 00:01:49;;;;;;;9.70;6.90;;;;;;;3.69;88.21;100256.50;103176;1317;97861;-72
2021/12/19 00:04:27;;;;;;;9.00;6.40;;;;;;;3.66;88.31;100245.85;103115;1318;112659;-71
2021/12/19 00:09:49;;;;;;;8.50;6.20;;;;;;;3.59;88.35;100234.02;103149;1321;109144;-71
2021/12/19 00:12:22;;;;;;;8.40;6.30;;;;;;;3.58;88.43;100229.02;103119;1322;97961;-72
2021/12/19 00:14:54;;;;;;;8.80;6.40;;;;;;;3.56;88.37;100228.34;103738;1317;97774;-70
2021/12/19 00:17:27;;;;;;;9.70;6.90;;;;;;;3.52;88.46;100234.20;104382;1318;112463;-71
2021/12/19 00:19:59;;;;;;;10.20;7.50;;;;;;;3.48;88.36;100230.62;103330;1317;108634;-70
2021/12/19 00:22:53;;;;;;;10.10;7.40;;;;;;;3.46;88.50;100217.91;103062;1316;108414;-71
2021/12/19 00:25:25;;;;;;;8.30;6.70;;;;;;;3.42;88.50;100209.84;103133;1317;97842;-72
2021/12/19 00:27:57;;;;;;;9.70;7.10;;;;;;;3.41;88.61;100202.11;104470;1322;96013;-72
2021/12/19 00:30:29;;;;;;;9.30;7.00;;;;;;;3.42;88.81;100192.67;104462;1318;112596;-72
2021/12/19 00:33:01;;;;;;;9.40;6.90;;;;;;;3.43;88.65;100196.27;104395;1317;109305;-72
2021/12/19 00:35:33;;;;;;;8.80;6.80;;;;;;;3.43;88.48;100199.02;104431;1317;108942;-71
2021/12/19 00:38:06;;;;;;;9.10;7.10;;;;;;;3.48;88.80;100181.81;104440;1316;96089;-71
2021/12/19 00:40:38;;;;;;;10.20;7.70;;;;;;;3.51;88.63;100170.77;104492;1319;96499;-71
2021/12/19 00:43:22;;;;;;;10.30;7.60;;;;;;;3.52;88.54;100164.41;103814;1317;113186;-70
2021/12/19 00:45:55;;;;;;;10.80;8.00;;;;;;;3.51;88.27;100162.52;103183;1317;108931;-72
2021/12/19 00:48:27;;;;;;;11.40;7.60;;;;;;;3.51;88.31;100154.80;102931;1318;108295;-71
2021/12/19 00:50:59;;;;;;;8.20;6.30;;;;;;;3.52;88.20;100148.43;103654;1317;97703;-72
2021/12/19 00:53:31;;;;;;;7.20;5.70;;;;;;;3.48;87.93;100136.77;104465;1317;96165;-72
2021/12/19 00:56:04;;;;;;;7.00;5.50;;;;;;;3.44;87.97;100146.59;103857;1319;113510;-71
2021/12/19 00:58:36;;;;;;;6.30;5.10;;;;;;;3.42;87.80;100149.02;104482;1316;110094;-71
2021/12/19 01:01:10;;;;;;;5.70;4.70;;;;;;;3.41;87.74;100146.25;104453;1318;109178;-72
2021/12/19 01:03:45;;;;;;;5.60;4.30;;;;;;;3.41;87.77;100138.87;104380;1318;96216;-72
2021/12/19 01:06:19;;;;;;;6.00;4.90;;;;;;;3.42;87.97;100132.00;103702;1317;97868;-71
2021/12/19 01:08:51;;;;;;;6.60;4.90;;;;;;;3.41;87.83;100121.85;103021;1318;112696;-71
2021/12/19 01:11:23;;;;;;;5.80;4.40;;;;;;;3.39;87.71;100113.94;103841;1316;108956;-71
2021/12/19 01:13:56;;;;;;;6.70;4.10;;;;;;;3.35;87.67;100115.52;103864;1317;108893;-71
2021/12/19 01:16:29;;;;;;;5.50;4.30;;;;;;;3.32;87.75;100095.09;103230;1324;96035;-71
2021/12/19 01:19:01;;;;;;;5.50;4.30;;;;;;;3.30;87.92;100103.35;103524;1320;97991;-71
2021/12/19 01:21:33;;;;;;;6.00;4.70;;;;;;;3.28;87.96;100099.06;103921;1320;112113;-71
2021/12/19 01:24:05;;;;;;;7.70;4.80;;;;;;;3.28;88.26;100083.42;103994;1318;108938;-71
2021/12/19 01:26:37;;;;;;;6.90;4.60;;;;;;;3.30;88.09;100085.14;103281;1320;109224;-72
2021/12/19 01:29:09;;;;;;;6.50;4.80;;;;;;;3.31;88.32;100081.17;104483;1318;96147;-72
2021/12/19 01:31:42;;;;;;;5.70;4.90;;;;;;;3.30;88.29;100078.27;103206;1318;97734;-71
2021/12/19 01:34:14;;;;;;;6.80;5.00;;;;;;;3.27;88.33;100087.21;103074;1317;112533;-72
2021/12/19 01:36:46;;;;;;;5.40;4.20;;;;;;;3.24;88.22;100077.27;103162;1316;109136;-73
2021/12/19 01:39:18;;;;;;;6.40;4.60;;;;;;;3.23;88.37;100065.41;103135;1317;108907;-70
2021/12/19 01:41:52;;;;;;;4.90;4.30;;;;;;;3.24;88.62;100060.09;104428;1318;95831;-71
2021/12/19 01:44:26;;;;;;;5.90;4.70;;;;;;;3.26;88.66;100051.65;103660;1315;98403;-71
2021/12/19 01:46:59;;;;;;;5.80;4.50;;;;;;;3.29;88.74;100045.80;103114;1319;112440;-71
2021/12/19 01:49:31;;;;;;;5.60;4.20;;;;;;;3.31;88.79;100037.18;103659;1317;108051;-71
2021/12/19 01:52:03;;;;;;;5.50;4.30;;;;;;;3.29;88.64;100031.36;103127;1317;109124;-72
2021/12/19 01:54:35;;;;;;;6.40;4.80;;;;;;;3.26;88.49;100030.34;103123;1318;97892;-71
2021/12/19 01:57:08;;;;;;;5.50;4.40;;;;;;;3.22;88.70;100021.75;103047;1318;97847;-71
2021/12/19 01:59:40;;;;;;;5.00;3.70;;;;;;;3.20;88.91;99998.75;103113;1317;112506;-71
2021/12/19 02:02:12;;;;;;;5.00;4.00;;;;;;;3.18;89.03;99994.81;103096;1318;109894;-71
2021/12/19 02:04:45;;;;;;;5.70;4.30;;;;;;;3.17;88.91;99989.16;103104;1321;108931;-71
2021/12/19 02:07:17;;;;;;;5.80;3.80;;;;;;;3.16;88.91;99976.27;103086;1317;97847;-71
2021/12/19 02:09:49;;;;;;;4.40;3.60;;;;;;;3.17;88.91;99958.23;104491;1317;95931;-71
2021/12/19 02:12:21;;;;;;;4.30;3.80;;;;;;;3.18;89.00;99957.02;104414;1318;112374;-72
2021/12/19 02:14:54;;;;;;;5.40;3.80;;;;;;;3.18;89.30;99952.38;104488;1317;109204;-72
2021/12/19 02:17:26;;;;;;;3.90;3.20;;;;;;;3.21;89.22;99949.09;103427;1316;109015;-71
2021/12/19 02:20:00;;;;;;;4.60;3.60;;;;;;;3.21;89.12;99939.46;103120;1317;97997;-70
2021/12/19 02:22:32;;;;;;;4.40;3.70;;;;;;;3.21;88.97;99938.45;103115;1319;97880;-70
2021/12/19 02:25:05;;;;;;;5.30;4.10;;;;;;;3.18;89.01;99933.99;103153;1317;110971;-71
2021/12/19 02:27:37;;;;;;;4.70;3.90;;;;;;;3.16;89.24;99920.96;104376;1318;107923;-71
2021/12/19 02:30:11;;;;;;;4.30;3.60;;;;;;;3.15;89.26;99926.81;103807;1317;108892;-71
2021/12/19 02:32:44;;;;;;;4.60;3.50;;;;;;;3.13;89.19;99928.89;104357;1317;96546;-71
2021/12/19 02:35:21;;;;;;;4.60;3.10;;;;;;;3.14;89.33;99920.46;103576;1318;97842;-71
2021/12/19 02:49:09;;;;;;;5.90;4.40;;;;;;;3.20;89.44;99891.71;102914;1321;97890;-72
2021/12/19 02:51:41;;;;;;;6.00;4.40;;;;;;;3.20;89.59;99892.06;102910;1320;111551;-70
2021/12/19 02:54:13;;;;;;;4.20;3.80;;;;;;;3.20;89.57;99892.23;102936;1321;109109;-70
2021/12/19 02:56:45;;;;;;;4.90;3.80;;;;;;;3.19;89.47;99893.62;102816;1320;108422;-71
2021/12/19 02:59:18;;;;;;;4.60;3.80;;;;;;;3.20;89.63;99885.88;102804;1320;98153;-71
2021/12/19 03:01:51;;;;;;;5.60;3.60;;;;;;;3.22;89.93;99884.65;103243;1302;98760;-71
2021/12/19 03:04:24;;;;;;;3.90;3.50;;;;;;;3.23;89.85;99875.38;103025;1315;112582;-70
2021/12/19 03:06:57;;;;;;;4.10;3.70;;;;;;;3.26;89.86;99876.23;103978;1316;108993;-73
2021/12/19 03:09:48;;;;;;;4.60;3.30;;;;;;;3.27;90.05;99867.61;104572;1315;109018;-72
2021/12/19 03:12:32;;;;;;;4.60;3.60;;;;;;;3.32;89.89;99855.89;104125;1321;96108;-72
2021/12/19 03:17:58;;;;;;;4.80;4.20;;;;;;;3.37;89.96;99841.75;104566;1317;112505;-72
2021/12/19 03:20:32;;;;;;;4.60;3.60;;;;;;;3.36;89.87;99836.94;103642;1315;108876;-72
2021/12/19 03:23:05;;;;;;;3.80;3.50;;;;;;;3.36;89.90;99831.78;104002;1315;108693;-72
2021/12/19 03:25:38;;;;;;;4.80;3.40;;;;;;;3.38;90.05;99836.23;103221;1315;97979;-71
2021/12/19 03:28:12;;;;;;;5.20;3.60;;;;;;;3.40;90.08;99822.45;103223;1315;97867;-72
2021/12/19 03:30:46;;;;;;;3.80;3.30;;;;;;;3.41;90.02;99820.73;104396;1316;112587;-70
2021/12/19 03:33:19;;;;;;;6.00;3.30;;;;;;;3.44;90.07;99806.80;104233;1315;109086;-72
2021/12/19 03:35:51;;;;;;;3.30;3.00;;;;;;;3.47;90.12;99799.38;104549;1314;108930;-70
2021/12/19 03:38:24;;;;;;;3.50;3.20;;;;;;;3.50;90.00;99785.07;104563;1317;96167;-71
2021/12/19 03:41:11;;;;;;;3.40;3.10;;;;;;;3.54;90.18;99785.54;104475;1317;96135;-70
2021/12/19 03:43:43;;;;;;;4.00;3.10;;;;;;;3.57;89.89;99791.16;104043;1317;110705;-72
2021/12/19 03:46:16;;;;;;;4.00;3.30;;;;;;;3.59;90.04;99783.59;103265;1316;107843;-73
2021/12/19 03:48:47;;;;;;;4.10;3.50;;;;;;;3.59;89.91;99787.04;103240;1315;106436;-72
2021/12/19 03:51:20;;;;;;;3.40;2.80;;;;;;;3.59;89.93;99776.55;103163;1321;97885;-71
2021/12/19 03:53:52;;;;;;;3.80;3.10;;;;;;;3.60;89.92;99776.55;103297;1315;98959;-72
2021/12/19 03:56:24;;;;;;;3.20;2.60;;;;;;;3.61;89.93;99772.76;103251;1314;112551;-70
2021/12/19 03:58:56;;;;;;;3.50;3.20;;;;;;;3.61;89.94;99763.83;103252;1315;108965;-71
2021/12/19 04:01:28;;;;;;;3.10;2.80;;;;;;;3.61;89.91;99760.20;103283;1317;108995;-73
2021/12/19 04:04:01;;;;;;;3.30;2.80;;;;;;;3.64;90.07;99748.30;103195;1317;97908;-71
2021/12/19 04:06:34;;;;;;;5.50;3.20;;;;;;;3.68;89.95;99748.09;103235;1316;97840;-70
2021/12/19 04:09:06;;;;;;;4.40;3.00;;;;;;;3.70;90.08;99742.55;103265;1317;113305;-70
2021/12/19 04:11:39;;;;;;;3.50;3.00;;;;;;;3.72;90.09;99738.74;103170;1315;109138;-72
2021/12/19 04:14:11;;;;;;;3.80;3.00;;;;;;;3.70;90.02;99729.65;103431;1316;108625;-71
2021/12/19 04:16:43;;;;;;;3.70;2.90;;;;;;;3.70;89.98;99716.76;104565;1315;95736;-71
2021/12/19 04:19:16;;;;;;;4.10;2.50;;;;;;;3.69;90.23;99708.35;104582;1320;96220;-71
2021/12/19 04:21:48;;;;;;;4.70;2.70;;;;;;;3.71;90.31;99710.04;104558;1315;112360;-71
2021/12/19 04:24:20;;;;;;;2.50;2.30;;;;;;;3.73;90.30;99717.75;104164;1317;108981;-70
2021/12/19 04:26:52;;;;;;;3.30;2.80;;;;;;;3.76;90.26;99702.06;103147;1317;108888;-70
2021/12/19 04:29:25;;;;;;;3.60;2.60;;;;;;;3.80;90.44;99697.38;103189;1316;97935;-70
2021/12/19 04:31:57;;;;;;;3.30;2.90;;;;;;;3.85;90.35;99694.71;104470;1315;96151;-71
2021/12/19 04:34:29;;;;;;;4.30;2.80;;;;;;;3.85;90.00;99683.03;104572;1314;112519;-70
2021/12/19 04:37:10;;;;;;;3.60;2.90;;;;;;;3.86;90.21;99676.65;103999;1315;107972;-71
2021/12/19 04:39:54;;;;;;;4.90;2.80;;;;;;;3.87;90.26;99664.60;104532;1319;108897;-72
2021/12/19 04:51:25;;;;;;;;;;;;;;;3.91;90.32;99658.52;102236;1330;109252;-69
2021/12/19 04:54:13;;;;;;;3.20;2.80;;;;;;;3.92;90.27;99654.54;102788;1330;108229;-71
2021/12/19 04:57:00;;;;;;;4.20;3.00;;;;;;;3.96;90.31;99644.54;102768;1328;96173;-70
2021/12/19 04:59:52;;;;;;;5.10;3.50;;;;;;;3.99;90.39;99643.97;102856;1330;96336;-71
2021/12/19 05:16:28;;;;;;;4.60;3.90;;;;;;;4.11;90.31;99651.33;103495;1329;112634;-71
2021/12/19 05:19:06;;;;;;;6.90;4.30;;;;;;;4.19;90.48;99655.52;103546;1325;109127;-71
2021/12/19 05:21:40;;;;;;;7.40;4.90;;;;;;;4.27;90.42;99659.52;103522;1327;109058;-71
2021/12/19 05:24:44;;;;;;;9.30;5.20;;;;;;;4.32;90.32;99658.24;103233;1324;98137;-70
2021/12/19 05:27:14;;;;;;;7.50;5.90;;;;;;;4.34;90.21;99666.81;104078;1320;96311;-71
2021/12/19 05:29:46;;;;;;;8.10;5.60;;;;;;;4.34;89.95;99659.92;104580;1314;112503;-71
2021/12/19 05:32:18;;;;;;;8.00;5.30;;;;;;;4.34;90.06;99655.98;104477;1315;107807;-71
2021/12/19 05:34:50;;;;;;;8.30;5.50;;;;;;;4.36;90.33;99649.22;103692;1317;108938;-71
2021/12/19 05:45:52;;;;;;;8.20;5.80;;;;;;;4.50;90.11;99642.62;104252;1316;108897;-72
2021/12/19 05:48:24;;;;;;;8.90;6.00;;;;;;;4.52;89.85;99636.23;103848;1320;109101;-72
2021/12/19 05:50:56;;;;;;;15.50;7.60;;;;;;;4.52;89.65;99635.01;103232;1316;97880;-72
2021/12/19 05:53:28;;;;;;;12.00;6.90;;;;;;;4.53;89.60;99634.13;104534;1317;96188;-71
2021/12/19 05:56:00;;;;;;;9.00;6.00;;;;;;;4.52;89.71;99623.14;104473;1316;110709;-72
2021/12/19 05:58:32;;;;;;;9.10;5.80;;;;;;;4.53;89.69;99620.88;104589;1317;109068;-72
2021/12/19 06:01:04;;;;;;;12.10;6.00;;;;;;;4.54;89.67;99616.38;103638;1315;108954;-71
2021/12/19 06:03:36;;;;;;;10.40;5.70;;;;;;;4.57;89.68;99611.85;103455;1323;96615;-72
2021/12/19 06:06:08;;;;;;;9.30;5.60;;;;;;;4.60;89.77;99613.18;103632;1321;95913;-72
2021/12/19 06:08:40;;;;;;;12.60;6.00;;;;;;;4.63;89.52;99612.24;104587;1316;112668;-70
2021/12/19 06:11:14;;;;;;;10.00;6.00;;;;;;;4.65;89.60;99607.73;103807;1317;108924;-72
2021/12/19 06:13:46;;;;;;;11.70;6.40;;;;;;;4.66;89.13;99603.06;104582;1316;108870;-72
2021/12/19 06:16:18;;;;;;;12.70;6.00;;;;;;;4.64;89.38;99601.71;103785;1316;97841;-71
2021/12/19 06:18:50;;;;;;;10.00;5.40;;;;;;;4.64;89.11;99588.80;103571;1316;97756;-72
2021/12/19 06:21:22;;;;;;;12.10;5.10;;;;;;;4.65;89.18;99573.98;104557;1317;112763;-72
2021/12/19 06:23:54;;;;;;;7.90;5.20;;;;;;;4.67;89.17;99576.54;104277;1316;108860;-72
2021/12/19 06:26:27;;;;;;;8.70;4.70;;;;;;;4.68;89.01;99577.39;104547;1317;108995;-72
2021/12/19 06:28:59;;;;;;;12.20;5.30;;;;;;;4.71;89.08;99578.02;104085;1317;96690;-72
2021/12/19 06:31:31;;;;;;;7.60;5.00;;;;;;;4.73;88.86;99578.66;103191;1316;98568;-72
2021/12/19 06:34:04;;;;;;;10.50;5.20;;;;;;;4.75;88.80;99578.97;103358;1319;112446;-71
2021/12/19 06:36:37;;;;;;;10.90;5.40;;;;;;;4.77;88.53;99579.79;103767;1316;262485;-72
2021/12/19 06:39:09;;;;;;;8.90;4.90;;;;;;;4.75;88.43;99575.01;103970;1317;108904;-72
2021/12/19 06:41:41;;;;;;;10.80;4.40;;;;;;;4.73;88.35;99580.58;103450;1315;97910;-72
2021/12/19 06:44:13;;;;;;;7.80;4.40;;;;;;;4.72;88.52;99578.34;104549;1317;96120;-72
2021/12/19 06:46:46;;;;;;;9.40;4.40;;;;;;;4.73;88.64;99579.36;103576;1316;112803;-71
2021/12/19 06:49:18;;;;;;;11.40;4.40;;;;;;;4.73;88.43;99570.58;103206;1317;109071;-72
2021/12/19 06:51:50;;;;;;;12.00;3.70;;;;;;;4.76;88.72;99574.13;103176;1316;108923;-71
2021/12/19 06:54:22;;;;;;;8.20;4.20;;;;;;;4.76;88.22;99568.27;103226;1317;97940;-71
2021/12/19 06:56:54;;;;;;;7.90;4.20;;;;;;;4.76;88.23;99565.17;103180;1316;97763;-73
2021/12/19 06:59:26;;;;;;;9.20;4.60;;;;;;;4.76;88.13;99567.92;103242;1315;112530;-72
2021/12/19 07:01:58;;;;;;;6.80;3.40;;;;;;;4.75;88.47;99566.91;103193;1316;109084;-71
2021/12/19 07:04:30;;;;;;;9.40;3.80;;;;;;;4.72;88.46;99560.94;103220;1317;108999;-72
2021/12/19 07:07:02;;;;;;;8.40;3.60;;;;;;;4.70;88.25;99561.16;103102;1316;97947;-72
2021/12/19 07:09:34;;;;;;;7.70;3.20;;;;;;;4.69;88.48;99562.55;103241;1316;97869;-72
2021/12/19 07:12:09;;;;;;;6.50;3.60;;;;;;;4.69;88.38;99570.30;103279;1317;112662;-71
2021/12/19 07:14:43;;;;;;;6.40;3.20;;;;;;;4.70;88.53;99570.98;104538;1315;108840;-72
2021/12/19 07:17:15;;;;;;;7.10;4.00;;;;;;;4.71;88.18;99573.02;103318;1315;108857;-72
2021/12/19 07:19:48;;;;;;;6.50;4.00;;;;;;;4.72;88.45;99573.00;103201;1316;97942;-72
2021/12/19 07:22:20;;;;;;;9.00;4.80;;;;;;;4.73;88.41;99571.78;103175;1320;97852;-72
2021/12/19 07:24:52;;;;;;;9.10;4.00;;;;;;;4.71;88.14;99571.13;103176;1316;110284;-72
2021/12/19 07:27:24;;;;;;;7.40;4.00;;;;;;;4.71;88.30;99558.58;103189;1317;108913;-72
2021/12/19 07:29:57;;;;;;;10.10;3.60;;;;;;;4.71;88.20;99558.39;103195;1317;109354;-72
2021/12/19 07:32:30;;;;;;;7.90;3.80;;;;;;;4.71;88.26;99554.41;104536;1316;96207;-72
2021/12/19 07:35:23;;;;;;;6.40;3.80;;;;;;;4.74;88.34;99558.67;104588;1317;96327;-72
2021/12/19 07:37:55;;;;;;;11.20;3.90;;;;;;;4.75;88.22;99552.27;103948;1315;111256;-73
2021/12/19 07:40:35;;;;;;;8.20;4.30;;;;;;;4.77;88.12;99550.15;103183;1317;108755;-72
2021/12/19 07:43:08;;;;;;;7.50;4.80;;;;;;;4.77;88.26;99546.36;103184;1315;108881;-72
2021/12/19 07:45:41;;;;;;;9.90;4.40;;;;;;;4.76;88.17;99555.86;103108;1317;97880;-72
2021/12/19 07:48:13;;;;;;;9.70;3.80;;;;;;;4.76;88.15;99553.46;103241;1317;97828;-73
2021/12/19 07:50:45;;;;;;;11.50;4.10;;;;;;;4.76;88.15;99555.36;103202;1316;112411;-72
2021/12/19 07:53:17;;;;;;;8.40;3.70;;;;;;;4.76;88.14;99554.66;103167;1317;108700;-71
2021/12/19 07:55:49;;;;;;;7.20;4.00;;;;;;;4.76;87.84;99546.23;103162;1316;108997;-71
2021/12/19 07:58:22;;;;;;;10.30;3.70;;;;;;;4.75;88.10;99551.06;103168;1316;97854;-71
2021/12/19 08:00:54;;;;;;;9.20;4.30;;;;;;;4.75;88.14;99550.02;103265;1315;97941;-71
2021/12/19 08:03:26;;;;;;;7.30;4.00;;;;;;;4.77;88.06;99547.23;103251;1316;112580;-71
2021/12/19 08:05:59;;;;;;;12.50;5.80;;;;;;;4.75;88.06;99542.11;103202;1315;108891;-72
2021/12/19 08:08:33;;;;;;;8.50;5.10;;;;;;;4.73;87.97;99545.23;103205;1317;107749;-72
2021/12/19 08:13:55;;;;;;;7.90;3.90;;;;;;;4.71;88.09;99544.10;103249;1317;97836;-72
2021/12/19 08:16:28;;;;;;;10.90;5.40;;;;;;;4.72;88.24;99548.20;103207;1316;112417;-72
2021/12/19 08:19:00;;;;;;;8.60;3.80;;;;;;;4.75;88.25;99544.35;103193;1315;108898;-72
2021/12/19 08:21:32;;;;;;;9.90;4.30;;;;;;;4.77;87.98;99545.00;103234;1316;109542;-71
2021/12/19 08:24:10;;;;;;;9.60;4.30;;;;;;;4.81;87.88;99549.39;103226;1317;97967;-71
2021/12/19 08:26:45;;;;;;;9.70;5.00;;;;;;;4.83;87.88;99543.14;104544;1315;96075;-71
2021/12/19 08:29:17;;;;;;;10.00;5.00;;;;;;;4.83;87.66;99542.98;104368;1317;112513;-71
2021/12/19 08:31:49;;;;;;;7.10;4.20;;;;;;;4.83;87.61;99539.53;103817;1315;108070;-71
2021/12/19 08:34:21;;;;;;;7.70;4.10;;;;;;;4.86;87.45;99538.63;103235;1317;109011;-71
2021/12/19 08:36:54;;;;;;;8.80;4.30;;;;;;;4.88;87.30;99538.77;103234;1317;97810;-72
2021/12/19 08:39:28;;;;;;;10.80;4.40;;;;;;;4.91;87.25;99538.02;103179;1316;97817;-70
2021/12/19 08:42:01;;;;;;;9.90;4.70;;;;;;;4.95;87.24;99533.27;103211;1316;113577;-73
2021/12/19 08:44:33;;;;;;;10.80;4.90;;;;;;;4.99;87.01;99537.66;103245;1317;108668;-73
2021/12/19 08:47:06;;;;;;;9.90;4.80;;;;;;;5.00;86.68;99533.33;103205;1316;107910;-71
2021/12/19 08:49:40;;;;;;;10.90;5.10;;;;;;;4.99;86.56;99544.55;104541;1315;96026;-71
2021/12/19 08:52:13;;;;;;;9.20;4.90;;;;;;;4.99;86.45;99547.65;104469;1317;95819;-71
2021/12/19 08:54:45;;;;;;;7.90;4.00;;;;;;;4.98;86.20;99551.12;104562;1317;112544;-72
2021/12/19 08:57:18;;;;;;;9.70;3.60;;;;;;;4.99;86.40;99545.06;103415;1320;109612;-72
2021/12/19 08:59:50;;;;;;;8.90;3.50;;;;;;;5.01;86.10;99549.15;103644;1320;108916;-72
2021/12/19 09:02:22;;;;;;;7.90;3.10;;;;;;;5.04;85.90;99554.80;104530;1316;95957;-73
2021/12/19 09:04:54;;;;;;;9.20;3.80;;;;;;;5.06;85.73;99556.49;104565;1317;95718;-73
2021/12/19 09:07:26;;;;;;;10.70;4.70;;;;;;;5.08;85.69;99545.92;104369;1315;112586;-72
2021/12/19 09:09:58;;;;;;;12.30;4.30;;;;;;;5.11;85.10;99552.24;103248;1315;108555;-72
2021/12/19 09:12:30;;;;;;;9.60;4.10;;;;;;;5.10;85.22;99551.23;103198;1317;108572;-72
2021/12/19 09:15:03;;;;;;;13.20;3.10;;;;;;;5.09;85.04;99556.76;103203;1315;97857;-72
2021/12/19 09:17:35;;;;;;;9.50;3.50;;;;;;;5.10;84.81;99557.42;103167;1316;97978;-71
2021/12/19 09:20:10;;;;;;;7.60;3.10;;;;;;;5.11;84.79;99551.37;103203;1317;111430;-72
2021/12/19 09:22:43;;;;;;;8.40;3.10;;;;;;;5.11;83.91;99537.56;104528;1315;109187;-72
2021/12/19 09:25:22;;;;;;;8.30;3.20;;;;;;;5.12;83.87;99531.89;104412;1317;108897;-72
2021/12/19 09:27:54;;;;;;;9.40;3.50;;;;;;;5.11;83.64;99535.34;104531;1317;96044;-72
2021/12/19 09:30:26;;;;;;;7.30;3.10;;;;;;;5.11;83.70;99541.89;104463;1317;96070;-72
2021/12/19 09:32:59;;;;;;;10.10;3.40;;;;;;;5.11;83.27;99535.35;104276;1315;113012;-71
2021/12/19 09:35:32;;;;;;;10.20;3.50;;;;;;;5.11;82.82;99528.46;103222;1315;108337;-72
2021/12/19 09:38:05;;;;;;;9.70;3.50;;;;;;;5.11;83.24;99538.61;103232;1317;108751;-71
2021/12/19 09:40:39;;;;;;;8.70;3.20;;;;;;;5.14;83.21;99533.90;103179;1316;98019;-72
2021/12/19 09:43:41;;;;;;;6.90;3.20;;;;;;;5.16;83.06;99527.82;103167;1315;97893;-72
2021/12/19 09:46:15;;;;;;;8.10;3.20;;;;;;;5.19;82.91;99519.13;104559;1316;112601;-72
2021/12/19 09:48:50;;;;;;;9.70;3.50;;;;;;;5.22;82.43;99507.54;104254;1319;108927;-72
2021/12/19 09:51:22;;;;;;;8.80;4.00;;;;;;;5.26;82.59;99505.91;103527;1317;108911;-72
2021/12/19 09:53:54;;;;;;;9.10;3.30;;;;;;;5.28;82.69;99492.57;104540;1317;96112;-71
2021/12/19 09:56:26;;;;;;;8.10;3.30;;;;;;;5.37;82.42;99487.88;103406;1324;95808;-71
2021/12/19 09:58:58;;;;;;;6.20;2.40;;;;;;;5.50;81.92;99469.64;104542;1316;111603;-71
2021/12/19 10:01:31;;;;;;;7.30;3.10;;;;;;;5.59;81.69;99477.89;103818;1316;107846;-71
2021/12/19 10:04:03;;;;;;;11.30;3.40;;;;;;;5.63;80.97;99484.17;103090;1316;108674;-72
2021/12/19 10:06:35;;;;;;;7.40;3.00;;;;;;;5.63;81.13;99482.79;103162;1316;97835;-73
2021/12/19 10:09:15;;;;;;;7.70;3.10;;;;;;;5.63;81.39;99483.48;103258;1315;97779;-71
2021/12/19 10:11:58;;;;;;;8.60;3.20;;;;;;;5.62;80.92;99477.46;103832;1317;112560;-71
2021/12/19 10:14:33;;;;;;;11.70;2.90;;;;;;;5.60;81.31;99474.07;104549;1315;108936;-72
2021/12/19 10:17:07;;;;;;;9.00;2.90;;;;;;;5.61;81.05;99460.94;103541;1323;107895;-72
2021/12/19 10:19:47;;;;;;;10.10;2.40;;;;;;;5.62;81.00;99451.59;103889;1316;95818;-73
2021/12/19 10:22:31;;;;;;;7.50;2.50;;;;;;;5.66;81.14;99441.65;104490;1317;95915;-73
2021/12/19 10:25:18;;;;;;;8.30;3.10;;;;;;;5.73;81.19;99443.38;104590;1317;112600;-73
2021/12/19 10:27:53;;;;;;;8.00;3.10;;;;;;;5.79;80.73;99432.73;104524;1312;108939;-73
2021/12/19 10:30:28;;;;;;;9.30;3.70;;;;;;;5.79;80.57;99428.23;104275;1315;109148;-72
2021/12/19 10:33:03;;;;;;;7.40;3.00;;;;;;;5.78;80.17;99429.80;103996;1316;96047;-72
2021/12/19 10:35:39;;;;;;;10.40;3.10;;;;;;;5.78;79.96;99425.84;104558;1315;96623;-73
2021/12/19 10:38:16;;;;;;;10.00;3.00;;;;;;;5.78;80.41;99426.37;104007;1316;112484;-73
2021/12/19 10:40:50;;;;;;;8.30;3.00;;;;;;;5.81;80.04;99421.64;104525;1317;109189;-72
2021/12/19 10:43:26;;;;;;;7.70;3.20;;;;;;;5.84;80.07;99419.64;103843;1315;107983;-72
2021/12/19 10:46:00;;;;;;;6.70;2.80;;;;;;;5.91;79.69;99425.68;103459;1320;97891;-73
2021/12/19 10:48:34;;;;;;;8.00;2.50;;;;;;;5.94;79.76;99424.95;104466;1316;97280;-71
2021/12/19 10:51:09;;;;;;;6.70;2.90;;;;;;;5.95;80.05;99428.52;103676;1315;112561;-72
2021/12/19 10:53:44;;;;;;;9.00;2.90;;;;;;;5.96;79.61;99420.91;103524;1322;108943;-71
2021/12/19 10:56:19;;;;;;;10.20;3.20;;;;;;;5.93;79.48;99416.50;104492;1315;107653;-71
2021/12/19 10:58:56;;;;;;;8.20;3.10;;;;;;;5.90;79.67;99419.32;104466;1317;96658;-73
2021/12/19 11:01:30;;;;;;;9.70;3.40;;;;;;;5.87;79.65;99416.09;103370;1315;97852;-72
2021/12/19 11:04:09;;;;;;;8.10;3.00;;;;;;;5.83;79.16;99397.59;103416;1315;112587;-71
2021/12/19 11:06:42;;;;;;;6.60;3.10;;;;;;;5.79;79.41;99397.02;103194;1315;108823;-72
2021/12/19 11:09:16;;;;;;;12.40;3.20;;;;;;;5.78;79.38;99395.99;103731;1316;108869;-74
2021/12/19 11:11:56;;;;;;;11.50;3.30;;;;;;;5.79;79.21;99386.14;104553;1315;96263;-73
2021/12/19 11:14:32;;;;;;;9.70;3.60;;;;;;;5.78;79.42;99386.00;103257;1315;97811;-72
2021/12/19 11:17:09;;;;;;;11.00;3.60;;;;;;;5.76;79.40;99386.23;103141;1316;112590;-74
2021/12/19 11:19:42;;;;;;;11.50;5.20;;;;;;;5.74;79.61;99392.81;103273;1315;108910;-71
2021/12/19 11:22:24;;;;;;;8.50;3.30;;;;;;;5.74;79.79;99386.61;103229;1317;109377;-71
2021/12/19 11:24:59;;;;;;;8.80;3.00;;;;;;;5.73;79.43;99383.69;103243;1316;97867;-72
2021/12/19 11:27:32;;;;;;;13.40;3.50;;;;;;;5.73;79.41;99377.98;103199;1317;97857;-72
2021/12/19 11:30:06;;;;;;;7.40;3.10;;;;;;;5.74;79.56;99377.80;103237;1316;111940;-72
2021/12/19 11:32:47;;;;;;;11.60;3.80;;;;;;;5.76;79.56;99376.56;103510;1317;108027;-73
2021/12/19 11:35:25;;;;;;;9.30;3.70;;;;;;;5.80;79.47;99378.88;103211;1315;108186;-72
2021/12/19 11:38:03;;;;;;;8.70;3.90;;;;;;;5.82;79.78;99374.52;103236;1314;97904;-72
2021/12/19 11:40:37;;;;;;;9.00;3.60;;;;;;;5.82;79.17;99375.36;103194;1317;97853;-73
2021/12/19 11:43:11;;;;;;;11.50;4.70;;;;;;;5.81;79.26;99377.81;104539;1315;111117;-73
2021/12/19 11:45:49;;;;;;;10.40;3.60;;;;;;;5.79;79.36;99380.28;104526;1316;107920;-73
2021/12/19 11:48:25;;;;;;;8.20;3.80;;;;;;;5.80;79.18;99376.64;104490;1314;108812;-73
2021/12/19 11:50:59;;;;;;;13.60;3.70;;;;;;;5.82;79.33;99370.71;103426;1323;96260;-73
2021/12/19 11:53:33;;;;;;;10.10;3.80;;;;;;;5.84;78.98;99364.78;104039;1315;97831;-72
2021/12/19 11:56:14;;;;;;;10.50;3.40;;;;;;;5.85;79.16;99367.52;104570;1317;112365;-73
2021/12/19 11:58:49;;;;;;;13.40;4.10;;;;;;;5.84;78.76;99365.13;104544;1317;109218;-73
2021/12/19 12:01:27;;;;;;;11.70;4.50;;;;;;;5.83;79.06;99360.34;104497;1316;109009;-74
2021/12/19 12:04:02;;;;;;;12.80;4.10;;;;;;;5.81;78.93;99353.30;103648;1315;97915;-72
2021/12/19 12:06:43;;;;;;;13.30;3.60;;;;;;;5.80;78.91;99357.65;103171;1316;97890;-72
2021/12/19 12:09:30;;;;;;;8.30;3.40;;;;;;;5.81;79.22;99348.84;103198;1315;112367;-72
2021/12/19 12:12:19;;;;;;;11.70;3.40;;;;;;;5.81;78.83;99352.45;104480;1312;108986;-72
2021/12/19 12:15:04;;;;;;;10.60;3.80;;;;;;;5.84;79.08;99339.09;103449;1320;108259;-73
2021/12/19 12:17:50;;;;;;;9.90;4.10;;;;;;;5.86;78.75;99336.94;103099;1315;97836;-73
2021/12/19 12:20:32;;;;;;;13.50;4.40;;;;;;;5.86;78.77;99332.80;103921;1316;96115;-73
2021/12/19 12:23:09;;;;;;;13.90;5.00;;;;;;;5.82;78.55;99333.42;104557;1315;109239;-73
2021/12/19 12:25:43;;;;;;;11.80;4.80;;;;;;;5.78;78.68;99332.36;103569;1316;108067;-72
2021/12/19 12:28:20;;;;;;;14.10;4.10;;;;;;;5.72;78.81;99331.13;104506;1315;107877;-73
2021/12/19 12:30:54;;;;;;;10.70;3.80;;;;;;;5.68;78.96;99323.80;104483;1315;95978;-73
2021/12/19 12:33:32;;;;;;;9.20;3.60;;;;;;;5.67;79.18;99329.71;104542;1315;96300;-73
2021/12/19 12:36:05;;;;;;;8.30;3.40;;;;;;;5.67;79.24;99325.40;103475;1315;111555;-73
2021/12/19 12:38:37;;;;;;;9.20;3.80;;;;;;;5.68;79.18;99322.08;103197;1314;107489;-72
2021/12/19 12:41:26;;;;;;;10.70;3.90;;;;;;;5.70;79.27;99318.73;103183;1315;108746;-73
2021/12/19 12:44:05;;;;;;;14.70;4.50;;;;;;;5.71;78.80;99321.48;103177;1314;97884;-72
2021/12/19 12:46:37;;;;;;;9.70;4.10;;;;;;;5.70;78.93;99313.40;103157;1316;97842;-72
2021/12/19 12:49:11;;;;;;;12.90;4.00;;;;;;;5.67;79.04;99315.57;103221;1315;112454;-72